Time,TemperatureF,DewpointF,PressureIn,WindDirection,WindDirectionDegrees,WindSpeedMPH,WindSpeedGustMPH,Humidity,HourlyPrecipIn,Conditions,Clouds,dailyrainin,SoftwareType,DateUTC
2013-05-13 00:01:00,65.0,31.0,30.16,SE,130,3.0,7.0,28,0.00,,,0.00,,2013-05-13 06:01:00,
2013-05-13 00:21:00,64.0,32.0,30.16,NNW,347,2.0,3.0,30,0.00,,,0.00,,2013-05-13 06:21:00,
2013-05-13 00:31:00,61.0,32.0,30.16,NE,53,1.0,5.0,33,0.00,,,0.00,,2013-05-13 06:31:00,
2013-05-13 00:42:00,61.0,33.0,30.16,North,355,1.0,4.0,35,0.00,,,0.00,,2013-05-13 06:42:00,
2013-05-13 00:52:00,61.0,33.0,30.16,North,355,1.0,4.0,35,0.00,,,0.00,,2013-05-13 06:52:00,
2013-05-13 01:01:00,62.0,34.0,30.16,ESE,107,8.0,10.0,35,0.00,,,0.00,,2013-05-13 07:01:00,
2013-05-13 01:11:00,62.0,34.0,30.16,ESE,107,8.0,10.0,35,0.00,,,0.00,,2013-05-13 07:11:00,
2013-05-13 01:21:00,62.0,33.0,30.16,ESE,107,10.0,17.0,33,0.00,,,0.00,,2013-05-13 07:21:00,
2013-05-13 01:31:00,62.0,33.0,30.16,ESE,119,10.0,16.0,34,0.00,,,0.00,,2013-05-13 07:31:00,
2013-05-13 01:41:00,62.0,33.0,30.15,SE,126,10.0,17.0,33,0.00,,,0.00,,2013-05-13 07:41:00,
2013-05-13 01:52:00,62.0,33.0,30.15,SE,126,10.0,17.0,33,0.00,,,0.00,,2013-05-13 07:52:00,
2013-05-13 02:01:00,62.0,33.0,30.15,SE,128,11.0,16.0,33,0.00,,,0.00,,2013-05-13 08:01:00,
2013-05-13 02:21:00,62.0,32.0,30.15,SE,128,11.0,16.0,32,0.00,,,0.00,,2013-05-13 08:21:00,
2013-05-13 02:31:00,62.0,32.0,30.15,ESE,119,11.0,17.0,32,0.00,,,0.00,,2013-05-13 08:31:00,
2013-05-13 02:41:00,62.0,32.0,30.15,ESE,119,11.0,17.0,32,0.00,,,0.00,,2013-05-13 08:41:00,
2013-05-13 02:52:00,62.0,32.0,30.14,ESE,118,10.0,14.0,32,0.00,,,0.00,,2013-05-13 08:52:00,
2013-05-13 03:01:00,62.0,32.0,30.14,SE,136,10.0,15.0,32,0.00,,,0.00,,2013-05-13 09:01:00,
2013-05-13 03:21:00,62.0,32.0,30.14,SE,126,10.0,15.0,32,0.00,,,0.00,,2013-05-13 09:21:00,
2013-05-13 03:32:00,62.0,31.0,30.14,ESE,116,12.0,16.0,31,0.00,,,0.00,,2013-05-13 09:32:00,
2013-05-13 03:42:00,62.0,31.0,30.14,ESE,116,12.0,16.0,31,0.00,,,0.00,,2013-05-13 09:42:00,
2013-05-13 03:52:00,62.0,31.0,30.14,ESE,117,10.0,16.0,31,0.00,,,0.00,,2013-05-13 09:52:00,
2013-05-13 04:02:00,62.0,31.0,30.14,ESE,123,14.0,21.0,31,0.00,,,0.00,,2013-05-13 10:02:00,
2013-05-13 04:22:00,62.0,31.0,30.13,ESE,114,13.0,19.0,31,0.00,,,0.00,,2013-05-13 10:22:00,
2013-05-13 04:32:00,61.0,30.0,30.13,SE,129,13.0,18.0,31,0.00,,,0.00,,2013-05-13 10:32:00,
2013-05-13 04:42:00,61.0,30.0,30.13,SE,129,13.0,18.0,31,0.00,,,0.00,,2013-05-13 10:42:00,
2013-05-13 04:52:00,61.0,30.0,30.13,ESE,121,12.0,19.0,31,0.00,,,0.00,,2013-05-13 10:52:00,
2013-05-13 05:02:00,62.0,30.0,30.13,SE,125,13.0,21.0,30,0.00,,,0.00,,2013-05-13 11:02:00,
2013-05-13 05:21:00,62.0,29.0,30.13,SE,127,9.0,18.0,29,0.00,,,0.00,,2013-05-13 11:21:00,
2013-05-13 05:32:00,61.0,30.0,30.13,ESE,112,12.0,17.0,31,0.00,,,0.00,,2013-05-13 11:32:00,
2013-05-13 05:41:00,61.0,30.0,30.13,ESE,112,12.0,17.0,31,0.00,,,0.00,,2013-05-13 11:41:00,
2013-05-13 05:52:00,61.0,30.0,30.13,SE,125,13.0,18.0,31,0.00,,,0.00,,2013-05-13 11:52:00,
2013-05-13 06:01:00,60.0,31.0,30.13,ESE,114,12.0,18.0,33,0.00,,,0.00,,2013-05-13 12:01:00,
2013-05-13 06:21:00,60.0,31.0,30.13,ESE,118,15.0,19.0,33,0.00,,,0.00,,2013-05-13 12:21:00,
2013-05-13 06:32:00,60.0,31.0,30.13,SE,126,13.0,22.0,33,0.00,,,0.00,,2013-05-13 12:32:00,
2013-05-13 06:41:00,60.0,31.0,30.13,SE,126,13.0,22.0,33,0.00,,,0.00,,2013-05-13 12:41:00,
2013-05-13 06:52:00,60.0,31.0,30.14,ESE,113,12.0,17.0,33,0.00,,,0.00,,2013-05-13 12:52:00,
2013-05-13 07:01:00,60.0,30.0,30.14,East,101,15.0,20.0,32,0.00,,,0.00,,2013-05-13 13:01:00,
2013-05-13 07:21:00,60.0,31.0,30.14,ESE,119,12.0,18.0,33,0.00,,,0.00,,2013-05-13 13:21:00,
2013-05-13 07:31:00,60.0,31.0,30.15,SE,124,13.0,18.0,33,0.00,,,0.00,,2013-05-13 13:31:00,
2013-05-13 07:41:00,61.0,32.0,30.15,ESE,115,12.0,16.0,33,0.00,,,0.00,,2013-05-13 13:41:00,
2013-05-13 08:01:00,62.0,33.0,30.15,SE,125,11.0,17.0,33,0.00,,,0.00,,2013-05-13 14:01:00,
2013-05-13 08:31:00,62.0,32.0,30.16,SE,124,8.0,13.0,32,0.00,,,0.00,,2013-05-13 14:31:00,
2013-05-13 08:41:00,62.0,32.0,30.16,SE,124,8.0,13.0,32,0.00,,,0.00,,2013-05-13 14:41:00,
2013-05-13 08:51:00,63.0,33.0,30.16,SE,125,11.0,17.0,32,0.00,,,0.00,,2013-05-13 14:51:00,
2013-05-13 09:01:00,64.0,32.0,30.16,ESE,121,11.0,16.0,30,0.00,,,0.00,,2013-05-13 15:01:00,
2013-05-13 09:11:00,64.0,32.0,30.16,ESE,121,11.0,16.0,30,0.00,,,0.00,,2013-05-13 15:11:00,
2013-05-13 09:21:00,65.0,33.0,30.17,ESE,121,12.0,17.0,30,0.00,,,0.00,,2013-05-13 15:21:00,
2013-05-13 09:31:00,65.0,34.0,30.17,SE,130,11.0,17.0,32,0.00,,,0.00,,2013-05-13 15:31:00,
2013-05-13 09:42:00,65.0,34.0,30.17,SE,130,11.0,17.0,32,0.00,,,0.00,,2013-05-13 15:42:00,
2013-05-13 09:53:00,66.0,32.0,30.17,ESE,107,9.0,14.0,28,0.00,,,0.00,,2013-05-13 15:53:00,
2013-05-13 10:03:00,66.0,33.0,30.17,SE,143,11.0,17.0,29,0.00,,,0.00,,2013-05-13 16:03:00,
2013-05-13 10:11:00,66.0,33.0,30.17,SE,143,11.0,17.0,29,0.00,,,0.00,,2013-05-13 16:11:00,
2013-05-13 10:21:00,67.0,33.0,30.16,ESE,123,11.0,16.0,28,0.00,,,0.00,,2013-05-13 16:21:00,
2013-05-13 10:33:00,68.0,33.0,30.16,SE,130,11.0,16.0,27,0.00,,,0.00,,2013-05-13 16:33:00,
2013-05-13 10:42:00,68.0,34.0,30.16,SSE,147,9.0,14.0,28,0.00,,,0.00,,2013-05-13 16:42:00,
2013-05-13 10:52:00,68.0,34.0,30.16,SSE,147,9.0,14.0,28,0.00,,,0.00,,2013-05-13 16:52:00,
2013-05-13 11:02:00,70.0,35.0,30.16,ESE,107,10.0,14.0,28,0.00,,,0.00,,2013-05-13 17:02:00,
2013-05-13 11:11:00,70.0,35.0,30.16,ESE,107,10.0,14.0,28,0.00,,,0.00,,2013-05-13 17:11:00,
2013-05-13 11:21:00,70.0,34.0,30.16,SE,124,8.0,15.0,27,0.00,,,0.00,,2013-05-13 17:21:00,
2013-05-13 11:32:00,72.0,36.0,30.16,SE,142,8.0,11.0,27,0.00,,,0.00,,2013-05-13 17:32:00,
2013-05-13 11:41:00,73.0,37.0,30.16,SE,132,5.0,9.0,27,0.00,,,0.00,,2013-05-13 17:41:00,
2013-05-13 11:54:00,73.0,37.0,30.16,SE,132,5.0,9.0,27,0.00,,,0.00,,2013-05-13 17:54:00,
2013-05-13 12:03:00,74.0,35.0,30.15,South,172,5.0,9.0,24,0.00,,,0.00,,2013-05-13 18:03:00,
2013-05-13 12:12:00,74.0,35.0,30.15,South,172,5.0,9.0,24,0.00,,,0.00,,2013-05-13 18:12:00,
2013-05-13 12:22:00,75.0,40.0,30.15,SSE,164,4.0,10.0,28,0.00,,,0.00,,2013-05-13 18:22:00,
2013-05-13 12:32:00,75.0,39.0,30.15,East,94,8.0,11.0,27,0.00,,,0.00,,2013-05-13 18:32:00,
2013-05-13 12:42:00,75.0,39.0,30.14,SW,231,4.0,15.0,27,0.00,,,0.00,,2013-05-13 18:42:00,
2013-05-13 12:51:00,75.0,39.0,30.14,SW,231,4.0,15.0,27,0.00,,,0.00,,2013-05-13 18:51:00,
2013-05-13 13:01:00,75.0,35.0,30.13,SE,140,3.0,12.0,23,0.00,,,0.00,,2013-05-13 19:01:00,
2013-05-13 13:11:00,75.0,35.0,30.13,SE,140,3.0,12.0,23,0.00,,,0.00,,2013-05-13 19:11:00,
2013-05-13 13:21:00,76.0,36.0,30.13,SW,225,3.0,11.0,23,0.00,,,0.00,,2013-05-13 19:21:00,
2013-05-13 13:32:00,76.0,38.0,30.12,WSW,251,6.0,9.0,25,0.00,,,0.00,,2013-05-13 19:32:00,
2013-05-13 13:43:00,75.0,37.0,30.12,West,268,5.0,9.0,25,0.00,,,0.00,,2013-05-13 19:43:00,
2013-05-13 13:53:00,75.0,37.0,30.12,West,268,5.0,9.0,25,0.00,,,0.00,,2013-05-13 19:53:00,
2013-05-13 14:01:00,75.0,37.0,30.12,West,259,4.0,9.0,25,0.00,,,0.00,,2013-05-13 20:01:00,
2013-05-13 14:11:00,75.0,37.0,30.12,West,259,4.0,9.0,25,0.00,,,0.00,,2013-05-13 20:11:00,
2013-05-13 14:23:00,74.0,38.0,30.11,WNW,300,4.0,7.0,27,0.00,,,0.00,,2013-05-13 20:23:00,
2013-05-13 14:33:00,75.0,36.0,30.11,WSW,242,3.0,7.0,24,0.00,,,0.00,,2013-05-13 20:33:00,
2013-05-13 14:44:00,75.0,36.0,30.11,WSW,242,3.0,7.0,24,0.00,,,0.00,,2013-05-13 20:44:00,
2013-05-13 14:53:00,75.0,37.0,30.10,West,271,6.0,11.0,25,0.00,,,0.00,,2013-05-13 20:53:00,
2013-05-13 15:02:00,74.0,37.0,30.10,West,272,6.0,10.0,26,0.00,,,0.00,,2013-05-13 21:02:00,
2013-05-13 15:14:00,74.0,37.0,30.10,West,272,6.0,10.0,26,0.00,,,0.00,,2013-05-13 21:14:00,
2013-05-13 15:22:00,75.0,39.0,30.09,WSW,256,3.0,5.0,27,0.00,,,0.00,,2013-05-13 21:22:00,
2013-05-13 15:33:00,75.0,35.0,30.09,WSW,258,1.0,5.0,23,0.00,,,0.00,,2013-05-13 21:33:00,
2013-05-13 15:43:00,75.0,35.0,30.09,WSW,258,1.0,5.0,23,0.00,,,0.00,,2013-05-13 21:43:00,
2013-05-13 15:53:00,75.0,37.0,30.08,West,263,1.0,8.0,25,0.00,,,0.00,,2013-05-13 21:53:00,
2013-05-13 16:02:00,78.0,36.0,30.07,SSW,201,3.0,7.0,22,0.00,,,0.00,,2013-05-13 22:02:00,
2013-05-13 16:12:00,78.0,36.0,30.07,SSW,201,3.0,7.0,22,0.00,,,0.00,,2013-05-13 22:12:00,
2013-05-13 16:22:00,78.0,31.0,30.06,SSW,200,9.0,14.0,18,0.00,,,0.00,,2013-05-13 22:22:00,
2013-05-13 16:32:00,76.0,31.0,30.06,SSW,205,9.0,16.0,19,0.00,,,0.00,,2013-05-13 22:32:00,
2013-05-13 16:42:00,76.0,33.0,30.05,SSW,207,7.0,14.0,21,0.00,,,0.00,,2013-05-13 22:42:00,
2013-05-13 16:52:00,76.0,33.0,30.05,SSW,207,7.0,14.0,21,0.00,,,0.00,,2013-05-13 22:52:00,
2013-05-13 17:01:00,76.0,33.0,30.04,SW,225,8.0,16.0,21,0.00,,,0.00,,2013-05-13 23:01:00,
2013-05-13 17:12:00,76.0,33.0,30.04,SW,225,8.0,16.0,21,0.00,,,0.00,,2013-05-13 23:12:00,
2013-05-13 17:23:00,77.0,32.0,30.03,SSE,167,8.0,15.0,19,0.00,,,0.00,,2013-05-13 23:23:00,
2013-05-13 17:33:00,78.0,34.0,30.03,WSW,248,9.0,17.0,20,0.00,,,0.00,,2013-05-13 23:33:00,
2013-05-13 17:42:00,78.0,34.0,30.03,WSW,248,9.0,17.0,20,0.00,,,0.00,,2013-05-13 23:42:00,
2013-05-13 17:54:00,79.0,32.0,30.03,SW,225,6.0,13.0,18,0.00,,,0.00,,2013-05-13 23:54:00,
2013-05-13 18:02:00,77.0,32.0,30.02,South,185,10.0,17.0,19,0.00,,,0.00,,2013-05-14 00:02:00,
2013-05-13 18:12:00,76.0,31.0,30.02,SSW,211,8.0,14.0,19,0.00,,,0.00,,2013-05-14 00:12:00,
2013-05-13 18:22:00,76.0,31.0,30.02,SSW,211,8.0,14.0,19,0.00,,,0.00,,2013-05-14 00:22:00,
2013-05-13 18:31:00,79.0,33.0,30.01,WSW,246,11.0,18.0,19,0.00,,,0.00,,2013-05-14 00:31:00,
2013-05-13 18:41:00,79.0,33.0,30.01,WSW,246,11.0,18.0,19,0.00,,,0.00,,2013-05-14 00:41:00,
2013-05-13 18:51:00,78.0,32.0,30.01,SW,221,9.0,14.0,19,0.00,,,0.00,,2013-05-14 00:51:00,
2013-05-13 19:01:00,78.0,35.0,30.01,SW,229,10.0,17.0,21,0.00,,,0.00,,2013-05-14 01:01:00,
2013-05-13 19:11:00,78.0,35.0,30.01,SW,229,10.0,17.0,21,0.00,,,0.00,,2013-05-14 01:11:00,
2013-05-13 19:21:00,78.0,34.0,30.00,WSW,242,14.0,22.0,20,0.00,,,0.00,,2013-05-14 01:21:00,
2013-05-13 19:31:00,76.0,33.0,30.00,WSW,253,14.0,21.0,21,0.00,,,0.00,,2013-05-14 01:31:00,
2013-05-13 19:43:00,76.0,33.0,30.00,WSW,253,14.0,21.0,21,0.00,,,0.00,,2013-05-14 01:43:00,
2013-05-13 19:52:00,76.0,33.0,30.00,WSW,257,14.0,22.0,21,0.00,,,0.00,,2013-05-14 01:52:00,
2013-05-13 20:02:00,75.0,32.0,29.99,SW,229,11.0,18.0,21,0.00,,,0.00,,2013-05-14 02:02:00,
2013-05-13 20:11:00,74.0,32.0,30.00,SW,224,12.0,19.0,21,0.00,,,0.00,,2013-05-14 02:11:00,
2013-05-13 20:21:00,74.0,32.0,30.00,SW,224,12.0,19.0,21,0.00,,,0.00,,2013-05-14 02:21:00,
2013-05-13 20:31:00,73.0,33.0,30.00,WSW,239,10.0,16.0,23,0.00,,,0.00,,2013-05-14 02:31:00,
2013-05-13 20:42:00,73.0,33.0,30.00,WSW,239,10.0,16.0,23,0.00,,,0.00,,2013-05-14 02:42:00,
2013-05-13 20:52:00,72.0,32.0,30.00,WSW,244,11.0,16.0,23,0.00,,,0.00,,2013-05-14 02:52:00,
2013-05-13 21:01:00,71.0,32.0,30.00,SW,224,7.0,13.0,24,0.00,,,0.00,,2013-05-14 03:01:00,
2013-05-13 21:11:00,71.0,32.0,30.00,SW,224,7.0,13.0,24,0.00,,,0.00,,2013-05-14 03:11:00,
2013-05-13 21:21:00,70.0,33.0,30.00,SSW,205,5.0,7.0,25,0.00,,,0.00,,2013-05-14 03:21:00,
2013-05-13 21:32:00,69.0,32.0,30.00,SW,216,6.0,8.0,25,0.00,,,0.00,,2013-05-14 03:32:00,
2013-05-13 21:42:00,69.0,32.0,30.00,SW,216,6.0,8.0,25,0.00,,,0.00,,2013-05-14 03:42:00,
2013-05-13 21:53:00,69.0,31.0,30.00,SSW,213,6.0,10.0,24,0.00,,,0.00,,2013-05-14 03:53:00,
2013-05-13 22:02:00,68.0,31.0,30.01,SW,221,7.0,10.0,25,0.00,,,0.00,,2013-05-14 04:02:00,
2013-05-13 22:12:00,68.0,31.0,30.01,SW,221,7.0,10.0,25,0.00,,,0.00,,2013-05-14 04:12:00,
2013-05-13 22:22:00,68.0,30.0,30.01,SSW,213,7.0,11.0,24,0.00,,,0.00,,2013-05-14 04:22:00,
2013-05-13 22:32:00,68.0,31.0,30.01,SW,221,7.0,10.0,25,0.00,,,0.00,,2013-05-14 04:32:00,
2013-05-13 22:42:00,68.0,31.0,30.01,SW,221,7.0,10.0,25,0.00,,,0.00,,2013-05-14 04:42:00,
2013-05-13 22:53:00,69.0,31.0,30.01,SSW,203,8.0,13.0,24,0.00,,,0.00,,2013-05-14 04:53:00,
2013-05-13 23:01:00,69.0,29.0,30.00,SW,223,11.0,15.0,22,0.00,,,0.00,,2013-05-14 05:01:00,
2013-05-13 23:12:00,69.0,29.0,30.00,SW,223,11.0,15.0,22,0.00,,,0.00,,2013-05-14 05:12:00,
2013-05-13 23:21:00,70.0,29.0,30.00,SW,220,13.0,21.0,22,0.00,,,0.00,,2013-05-14 05:21:00,
2013-05-13 23:32:00,69.0,29.0,30.01,WSW,240,11.0,24.0,22,0.00,,,0.00,,2013-05-14 05:32:00,
2013-05-13 23:42:00,68.0,29.0,30.01,WSW,248,7.0,13.0,23,0.00,,,0.00,,2013-05-14 05:42:00,
2013-05-13 23:52:00,68.0,29.0,30.01,WSW,248,7.0,13.0,23,0.00,,,0.00,,2013-05-14 05:52:00,